Terminal Aerodrome Forecast
Issued by NWS Charleston, WV

Current Version | Previous Version | Graphics & Text | Print | Product List | Glossary On
Versions: 1 2 3 4 5 6 7 8 9 10 11 12 13 14 15 16 17 18 19 20
000
FTUS41 KRLX 181400 AAA
TAFHTS
TAF AMD
KHTS 181425Z 1814/1912 27009G15KT 3SM -SHSN BKN025 OVC035
     FM181500 26010G18KT P6SM SCT025
     FM181800 26010G18KT P6SM SKC
     FM190200 25006KT P6SM SKC
     FM190900 22006KT P6SM SKC=

USA.gov is the U.S. government's official web portal to all federal, state and local government web resources and services.